createdAt,value
2022-08-21T00:03:31.031Z,21.60
2022-08-21T00:08:34.609Z,17.40
2022-08-21T00:13:40.626Z,17.40
2022-08-21T00:18:43.997Z,17.30
2022-08-21T00:23:47.328Z,17.30
2022-08-21T00:28:52.129Z,17.30
2022-08-21T00:33:59.379Z,17.20
2022-08-21T00:39:05.118Z,17.10
2022-08-21T00:44:14.022Z,17.10
2022-08-21T00:49:17.411Z,17.00
2022-08-21T00:54:22.649Z,17.00
2022-08-21T00:59:30.299Z,16.90
2022-08-21T01:04:33.635Z,16.90
2022-08-21T01:09:37.437Z,16.80
2022-08-21T01:14:43.902Z,16.80
2022-08-21T01:19:47.246Z,16.80
2022-08-21T01:24:52.297Z,16.70
2022-08-21T01:30:00.437Z,16.70
2022-08-21T01:35:04.388Z,16.60
2022-08-21T01:40:11.612Z,16.60
2022-08-21T01:45:16.609Z,16.50
2022-08-21T01:50:22.230Z,16.50
2022-08-21T01:55:26.990Z,16.60
2022-08-21T02:00:30.541Z,16.60
2022-08-21T02:05:33.941Z,16.60
2022-08-21T02:10:38.669Z,16.70
2022-08-21T02:15:41.957Z,15.80
2022-08-21T02:20:54.178Z,16.70
2022-08-21T02:26:02.631Z,16.70
2022-08-21T02:31:08.521Z,16.70
2022-08-21T02:36:13.398Z,16.70
2022-08-21T02:41:21.811Z,16.70
2022-08-21T02:46:25.219Z,16.60
2022-08-21T02:51:28.714Z,16.60
2022-08-21T02:56:33.454Z,16.60
2022-08-21T03:01:38.587Z,16.60
2022-08-21T03:06:41.963Z,16.50
2022-08-21T03:11:46.705Z,16.60
2022-08-21T03:16:50.861Z,16.60
2022-08-21T03:21:54.213Z,16.60
2022-08-21T03:26:59.087Z,16.70
2022-08-21T03:32:03.187Z,16.70
2022-08-21T03:37:07.984Z,16.70
2022-08-21T03:42:13.127Z,16.80
2022-08-21T03:47:16.629Z,16.80
2022-08-21T03:52:20.277Z,16.80
2022-08-21T03:57:25.068Z,16.80
2022-08-21T04:02:28.499Z,16.80
2022-08-21T04:07:31.896Z,16.80
2022-08-21T04:12:36.606Z,16.80
2022-08-21T04:17:40.365Z,16.70
2022-08-21T04:22:44.009Z,16.70
2022-08-21T04:27:49.148Z,16.70
2022-08-21T04:32:53.385Z,16.70
2022-08-21T04:37:57.103Z,16.70
2022-08-21T04:43:05.968Z,16.70
2022-08-21T04:48:14.306Z,16.70
2022-08-21T04:53:22.802Z,16.70
2022-08-21T04:58:29.130Z,16.70
2022-08-21T05:03:35.220Z,16.60
2022-08-21T05:08:40.334Z,16.70
2022-08-21T05:13:45.062Z,16.20
2022-08-21T05:18:48.354Z,16.90
2022-08-21T05:23:51.653Z,15.00
2022-08-21T05:28:57.328Z,17.00
2022-08-21T05:34:00.735Z,17.00
2022-08-21T05:39:06.955Z,16.90
2022-08-21T05:44:11.679Z,16.90
2022-08-21T05:49:15.677Z,16.90
2022-08-21T05:54:19.065Z,16.90
2022-08-21T05:59:24.206Z,16.90
2022-08-21T06:04:27.728Z,17.00
2022-08-21T06:09:31.018Z,17.10
2022-08-21T06:14:35.790Z,17.20
2022-08-21T06:19:39.598Z,17.30
2022-08-21T06:24:43.057Z,17.40
2022-08-21T06:29:48.003Z,17.70
2022-08-21T06:34:51.411Z,17.50
2022-08-21T06:39:54.752Z,17.60
2022-08-21T06:45:00.717Z,17.80
2022-08-21T06:50:05.892Z,17.60
2022-08-21T06:55:11.575Z,17.60
2022-08-21T07:00:18.062Z,17.90
2022-08-21T07:05:21.530Z,18.20
2022-08-21T07:10:25.239Z,17.90
2022-08-21T07:15:30.825Z,17.90
2022-08-21T07:20:34.923Z,17.70
2022-08-21T07:25:38.210Z,17.90
2022-08-21T07:30:42.890Z,18.30
2022-08-21T07:35:46.021Z,18.10
2022-08-21T07:40:51.198Z,18.90
2022-08-21T07:45:56.114Z,18.80
2022-08-21T07:51:00.666Z,19.00
2022-08-21T07:56:04.714Z,19.30
2022-08-21T08:01:09.972Z,19.10
2022-08-21T08:06:13.519Z,19.30
2022-08-21T08:11:17.233Z,19.40
2022-08-21T08:16:21.976Z,19.30
2022-08-21T08:21:25.402Z,19.00
2022-08-21T08:26:28.819Z,19.00
2022-08-21T08:31:33.540Z,19.60
2022-08-21T08:36:38.679Z,19.70
2022-08-21T08:41:48.148Z,19.90
2022-08-21T08:46:53.903Z,19.90
2022-08-21T08:52:04.582Z,19.40
2022-08-21T08:57:12.620Z,19.60
2022-08-21T09:02:19.511Z,19.70
2022-08-21T09:07:30.897Z,19.80
2022-08-21T09:12:47.542Z,20.10
2022-08-21T09:18:07.586Z,20.40
2022-08-21T09:23:23.489Z,20.40
2022-08-21T09:28:27.584Z,20.40
2022-08-21T09:33:32.474Z,20.50
2022-08-21T09:38:38.380Z,20.30
2022-08-21T09:43:41.798Z,20.50
2022-08-21T09:48:49.450Z,20.30
2022-08-21T09:53:57.554Z,20.30
2022-08-21T09:59:00.896Z,20.50
2022-08-21T10:04:07.297Z,21.30
2022-08-21T10:09:19.945Z,21.40
2022-08-21T10:14:40.185Z,22.90
2022-08-21T10:19:54.047Z,23.80
2022-08-21T10:25:04.548Z,24.00
2022-08-21T10:30:13.533Z,22.80
2022-08-21T10:35:24.785Z,23.60
2022-08-21T10:40:36.690Z,25.20
2022-08-21T10:45:52.146Z,22.80
2022-08-21T10:51:04.537Z,25.40
2022-08-21T10:56:17.197Z,24.70
2022-08-21T11:01:29.839Z,27.00
2022-08-21T11:06:36.078Z,27.60
2022-08-21T11:11:47.230Z,25.70
2022-08-21T11:17:09.442Z,26.20
2022-08-21T11:22:23.379Z,24.50
2022-08-21T11:27:31.841Z,24.40
2022-08-21T11:33:15.050Z,25.80
2022-08-21T11:38:36.873Z,27.10
2022-08-21T11:43:44.106Z,25.40
2022-08-21T11:48:59.848Z,25.20
2022-08-21T11:54:09.429Z,28.90
2022-08-21T11:59:18.481Z,29.50
2022-08-21T12:04:28.786Z,31.90
2022-08-21T12:09:37.749Z,30.20
2022-08-21T12:14:44.357Z,27.70
2022-08-21T12:19:58.985Z,26.80
2022-08-21T12:25:10.011Z,28.30
2022-08-21T12:30:27.422Z,30.50
2022-08-21T12:35:44.007Z,31.90
2022-08-21T12:40:54.463Z,30.30
2022-08-21T12:45:57.868Z,29.10
2022-08-21T12:51:11.654Z,31.00
2022-08-21T12:56:20.878Z,31.90
2022-08-21T13:01:28.084Z,32.80
2022-08-21T13:06:38.833Z,31.70
2022-08-21T13:11:45.978Z,33.80
2022-08-21T13:16:49.830Z,35.60
2022-08-21T13:21:54.180Z,34.80
2022-08-21T13:26:59.517Z,34.60
2022-08-21T13:32:05.683Z,33.30
2022-08-21T13:37:13.444Z,32.00
2022-08-21T13:42:18.706Z,33.20
2022-08-21T13:47:22.502Z,32.60
2022-08-21T13:52:28.349Z,33.60
2022-08-21T13:57:36.004Z,35.20
2022-08-21T14:02:42.704Z,35.50
2022-08-21T14:07:48.226Z,34.90
2022-08-21T14:12:55.785Z,35.40
2022-08-21T14:18:11.931Z,33.50
2022-08-21T14:23:26.512Z,34.00
2022-08-21T14:28:34.433Z,25.60
2022-08-21T14:33:37.961Z,32.10
2022-08-21T14:38:42.839Z,33.00
2022-08-21T14:44:01.207Z,32.70
2022-08-21T14:49:09.949Z,31.60
2022-08-21T14:54:13.623Z,31.90
2022-08-21T14:59:20.893Z,33.00
2022-08-21T15:04:24.986Z,33.20
2022-08-21T15:09:29.144Z,33.30
2022-08-21T15:14:38.733Z,34.20
2022-08-21T15:19:42.773Z,32.20
2022-08-21T15:24:46.698Z,33.40
2022-08-21T15:29:54.418Z,33.20
2022-08-21T15:34:59.198Z,33.10
2022-08-21T15:40:02.978Z,32.00
2022-08-21T15:45:09.442Z,31.70
2022-08-21T15:50:15.306Z,32.40
2022-08-21T15:55:18.864Z,32.70
2022-08-21T16:00:25.296Z,34.80
2022-08-21T16:05:28.692Z,33.30
2022-08-21T16:10:32.086Z,33.30
2022-08-21T16:15:36.929Z,32.60
2022-08-21T16:20:40.280Z,32.50
2022-08-21T16:25:44.895Z,33.50
2022-08-21T16:30:51.609Z,34.10
2022-08-21T16:35:55.582Z,33.60
2022-08-21T16:40:59.033Z,32.80
2022-08-21T16:46:04.117Z,30.80
2022-08-21T16:51:07.604Z,29.30
2022-08-21T16:56:12.445Z,27.80
2022-08-21T17:01:20.867Z,26.90
2022-08-21T17:06:28.972Z,26.30
2022-08-21T17:11:38.003Z,25.80
2022-08-21T17:16:47.814Z,25.70
2022-08-21T17:21:51.176Z,25.40
2022-08-21T17:26:56.334Z,25.20
2022-08-21T17:32:01.198Z,25.10
2022-08-21T17:37:04.811Z,24.90
2022-08-21T17:42:12.260Z,24.60
2022-08-21T17:47:17.898Z,24.50
2022-08-21T17:52:21.536Z,24.20
2022-08-21T17:57:28.229Z,23.80
2022-08-21T18:02:33.205Z,23.60
2022-08-21T18:07:36.686Z,23.20
2022-08-21T18:12:41.387Z,23.00
2022-08-21T18:17:49.576Z,22.60
2022-08-21T18:22:52.985Z,22.40
2022-08-21T18:27:56.949Z,22.20
2022-08-21T18:33:01.929Z,22.00
2022-08-21T18:38:05.325Z,21.90
2022-08-21T18:43:12.760Z,21.60
2022-08-21T18:48:20.851Z,21.20
2022-08-21T18:53:27.790Z,20.90
2022-08-21T18:58:32.667Z,20.70
2022-08-21T19:03:37.614Z,20.50
2022-08-21T19:08:41.015Z,20.20
2022-08-21T19:13:45.022Z,20.10
2022-08-21T19:18:49.810Z,19.90
2022-08-21T19:23:53.873Z,19.70
2022-08-21T19:29:02.086Z,18.40
2022-08-21T19:34:10.994Z,19.50
2022-08-21T19:39:14.383Z,19.30
2022-08-21T19:44:20.985Z,19.30
2022-08-21T19:49:29.865Z,19.30
2022-08-21T19:54:36.643Z,19.30
2022-08-21T19:59:41.722Z,19.30
2022-08-21T20:10:10.618Z,19.20
2022-08-21T20:15:14.685Z,19.20
2022-08-21T20:20:19.887Z,19.20
2022-08-21T20:25:23.345Z,19.20
2022-08-21T20:30:26.791Z,19.20
2022-08-21T20:35:31.309Z,19.20
2022-08-21T20:40:35.868Z,18.90
2022-08-21T20:45:40.142Z,18.70
2022-08-21T20:50:49.195Z,18.70
2022-08-21T20:55:52.988Z,18.80
2022-08-21T21:01:00.050Z,18.90
2022-08-21T21:06:09.146Z,18.90
2022-08-21T21:11:17.117Z,18.90
2022-08-21T21:16:24.537Z,18.90
2022-08-21T21:21:35.853Z,18.90
2022-08-21T21:26:48.656Z,18.90
2022-08-21T21:31:54.113Z,18.80
2022-08-21T21:37:04.012Z,18.70
2022-08-21T21:42:16.246Z,18.60
2022-08-21T21:47:25.516Z,18.50
2022-08-21T21:52:46.518Z,18.50
2022-08-21T21:58:04.821Z,18.50
2022-08-21T22:03:15.852Z,18.40
2022-08-21T22:08:30.157Z,18.40
2022-08-21T22:13:39.097Z,18.40
2022-08-21T22:18:47.166Z,18.30
2022-08-21T22:24:07.511Z,18.20
2022-08-21T22:29:20.602Z,18.10
2022-08-21T22:34:25.314Z,18.00
2022-08-21T22:39:38.510Z,18.00
2022-08-21T22:44:51.746Z,18.00
2022-08-21T22:50:02.309Z,17.90
2022-08-21T22:55:24.672Z,17.80
2022-08-21T23:00:49.602Z,17.70
2022-08-21T23:05:54.727Z,17.50
2022-08-21T23:11:03.020Z,17.30
2022-08-21T23:16:19.957Z,17.30
2022-08-21T23:21:30.493Z,17.30
2022-08-21T23:26:46.926Z,17.30
2022-08-21T23:32:04.074Z,17.50
2022-08-21T23:37:49.387Z,17.40
2022-08-21T23:43:08.141Z,17.20
2022-08-21T23:48:29.591Z,17.20
2022-08-21T23:53:50.311Z,17.30
2022-08-21T23:59:04.469Z,17.20
